Stewartsville, Missouri
Current Conditions -  °F | °C
As of 4:12 AM on Monday 20 Oct 2014 (Local Time) from KSTJ Reporting Station
Haze Haze  
Wind Chill: 42°   Ceiling: Unl
Heat Index: 42°   Visibility: 1.7mi
Dew Point: 41°   Wind: 0mph
Humidity: 96%   Direction: NA
Pressure: 29.99"   Gusts: NA
Location:  39.75°N, 94.5°W
Report Text: KSTJ 200912Z AUTO 00000KT 1 3/4SM BR CLR 06/05 A2999 RMK AO2 VIS 1V5 T00560050 $
Loading
Personal Weather Stations






























Interactive Weather Map New forecast layout! Learn more

10-Day Weather Forecast

Advertisements
Track Severe Weather on mobile